Time;durP1;ratioP1;P1;durP2;ratioP2;P2;SDS_P1;SDS_P2;PMS_P1;PMS_P2;Temp;Humidity;BMP_temperature;BMP_pressure;BME280_temperature;BME280_humidity;BME280_pressure;Samples;Min_cycle;Max_cycle;Signal;HPM_P1;HPM_P2
2023/12/28 00:01:43;;;;;;;0.10;0.10;;;;;;;12.06;69.51;100829.00;5018063;28;20058;-83
2023/12/28 00:04:09;;;;;;;0.28;0.28;;;;;;;12.20;68.97;100815.34;5017643;28;20038;-84
2023/12/28 00:06:35;;;;;;;0.20;0.20;;;;;;;12.12;69.21;100815.56;5020550;28;20030;-83
2023/12/28 00:09:01;;;;;;;0.38;0.38;;;;;;;12.16;69.42;100819.88;5017483;28;20026;-84
2023/12/28 00:11:28;;;;;;;0.20;0.20;;;;;;;12.24;69.09;100809.06;5019468;28;20042;-83
2023/12/28 00:13:54;;;;;;;0.10;0.10;;;;;;;12.22;68.96;100809.09;5017945;28;20030;-82
2023/12/28 00:16:20;;;;;;;0.10;0.10;;;;;;;12.28;69.17;100824.84;5020016;28;20022;-83
2023/12/28 00:18:46;;;;;;;0.10;0.10;;;;;;;12.18;69.64;100831.34;5021099;28;20022;-83
2023/12/28 00:21:12;;;;;;;0.10;0.10;;;;;;;12.11;69.51;100822.69;5015970;28;20034;-83
2023/12/28 00:23:39;;;;;;;1.08;1.00;;;;;;;12.28;69.39;100832.84;5017283;28;20044;-82
2023/12/28 00:26:05;;;;;;;0.20;0.20;;;;;;;12.15;69.59;100818.16;5016813;28;20049;-83
2023/12/28 00:28:31;;;;;;;0.10;0.10;;;;;;;12.18;69.59;100819.88;5019209;28;20064;-84
2023/12/28 00:30:57;;;;;;;0.10;0.10;;;;;;;12.17;69.77;100821.63;5029509;28;20408;-83
2023/12/28 00:33:23;;;;;;;0.10;0.10;;;;;;;12.15;70.33;100831.44;5022865;28;20037;-81
2023/12/28 00:35:49;;;;;;;0.45;0.45;;;;;;;12.24;69.97;100820.56;5020663;28;20112;-83
2023/12/28 00:38:16;;;;;;;0.10;0.10;;;;;;;12.02;70.68;100827.38;5024029;28;20009;-80
2023/12/28 00:40:42;;;;;;;0.10;0.10;;;;;;;11.99;70.09;100849.56;5033686;28;20045;-81
2023/12/28 00:43:08;;;;;;;0.10;0.10;;;;;;;11.99;69.95;100823.00;5027260;28;20034;-82
2023/12/28 00:45:34;;;;;;;0.10;0.10;;;;;;;12.01;70.24;100857.47;5018843;28;20112;-82
2023/12/28 00:48:00;;;;;;;0.85;0.73;;;;;;;12.13;70.37;100838.56;5018582;28;20030;-83
2023/12/28 00:50:31;;;;;;;0.00;0.00;;;;;;;12.12;69.80;100850.09;5017326;28;20045;-83
2023/12/28 00:52:57;;;;;;;0.20;0.20;;;;;;;12.14;69.66;100833.22;5024348;28;20559;-82
2023/12/28 00:55:23;;;;;;;0.17;0.17;;;;;;;12.17;69.95;100826.94;5017400;28;20064;-82
2023/12/28 00:57:49;;;;;;;0.20;0.20;;;;;;;12.19;69.37;100835.75;5031730;28;20026;-81
2023/12/28 01:00:16;;;;;;;0.20;0.20;;;;;;;12.18;69.79;100828.69;5018887;28;20038;-84
2023/12/28 01:02:43;;;;;;;0.10;0.10;;;;;;;12.24;69.38;100831.19;5017785;28;20489;-83
2023/12/28 01:05:09;;;;;;;0.10;0.10;;;;;;;12.07;69.61;100831.63;5026112;28;20040;-85
2023/12/28 01:07:35;;;;;;;1.65;1.20;;;;;;;12.15;68.98;100836.75;5017314;28;20093;-84
2023/12/28 01:10:01;;;;;;;0.20;0.20;;;;;;;12.15;69.65;100834.09;5016663;28;20687;-83
2023/12/28 01:12:27;;;;;;;2.72;2.53;;;;;;;11.93;69.36;100845.22;5017155;28;20053;-84
2023/12/28 01:14:54;;;;;;;0.52;0.52;;;;;;;12.01;69.75;100837.09;5016679;28;20524;-84
2023/12/28 01:17:20;;;;;;;0.20;0.20;;;;;;;12.12;69.19;100828.84;5027482;28;20042;-83
2023/12/28 01:19:46;;;;;;;0.13;0.13;;;;;;;12.28;68.83;100829.31;5018862;28;20077;-83
2023/12/28 01:22:13;;;;;;;0.10;0.10;;;;;;;12.09;69.04;100834.25;5022192;28;20026;-84
2023/12/28 01:24:39;;;;;;;0.10;0.10;;;;;;;12.17;68.76;100831.41;5024907;28;20382;-84
2023/12/28 01:27:05;;;;;;;0.13;0.13;;;;;;;12.22;68.62;100845.41;5026763;28;20133;-84
2023/12/28 01:29:32;;;;;;;0.10;0.10;;;;;;;12.02;69.27;100841.50;5018395;28;20060;-84
2023/12/28 01:31:59;;;;;;;0.20;0.20;;;;;;;12.02;69.30;100840.63;5026583;28;20041;-82
2023/12/28 01:34:25;;;;;;;0.10;0.10;;;;;;;11.98;69.79;100826.56;5026357;28;20025;-84
2023/12/28 01:36:51;;;;;;;0.20;0.20;;;;;;;11.97;70.33;100846.94;5020099;28;20025;-84
2023/12/28 01:39:18;;;;;;;0.43;0.40;;;;;;;11.98;69.63;100827.44;5018687;28;20173;-84
2023/12/28 01:41:46;;;;;;;0.10;0.10;;;;;;;11.93;69.48;100834.63;5018553;28;20037;-84
2023/12/28 01:44:12;;;;;;;0.10;0.10;;;;;;;12.01;69.90;100830.94;5026815;28;20026;-83
2023/12/28 01:46:39;;;;;;;0.10;0.10;;;;;;;12.06;69.61;100834.31;5026103;28;20456;-83
2023/12/28 01:49:05;;;;;;;0.10;0.10;;;;;;;11.95;69.03;100838.13;5017307;28;20401;-83
2023/12/28 01:51:32;;;;;;;0.63;0.63;;;;;;;11.89;69.72;100840.91;5017775;28;20034;-84
2023/12/28 01:53:59;;;;;;;0.15;0.15;;;;;;;12.01;69.05;100825.63;5017134;28;20169;-82
2023/12/28 01:56:26;;;;;;;0.85;0.85;;;;;;;11.94;69.06;100864.72;5023289;28;20057;-84
2023/12/28 01:58:54;;;;;;;0.10;0.10;;;;;;;11.82;69.41;100852.59;5023743;28;20033;-82
2023/12/28 02:01:21;;;;;;;0.10;0.10;;;;;;;12.01;69.11;100854.81;5015875;28;20460;-84
2023/12/28 02:03:47;;;;;;;0.10;0.10;;;;;;;11.96;68.88;100855.81;5016168;28;20026;-84
2023/12/28 02:06:16;;;;;;;0.50;0.50;;;;;;;12.05;68.63;100854.72;5024135;28;20033;-83
2023/12/28 02:08:42;;;;;;;0.50;0.50;;;;;;;11.89;69.50;100858.66;5015362;28;20478;-84
2023/12/28 02:11:09;;;;;;;0.20;0.20;;;;;;;11.97;69.23;100854.03;5015940;28;20034;-84
2023/12/28 02:13:35;;;;;;;0.28;0.28;;;;;;;11.91;69.17;100857.69;5015452;28;20033;-83
2023/12/28 02:16:09;;;;;;;1.48;0.47;;;;;;;12.03;68.90;100860.97;5015655;28;20037;-84
2023/12/28 02:18:42;;;;;;;0.10;0.10;;;;;;;11.91;69.16;100868.31;5021785;28;20038;-83
2023/12/28 02:21:09;;;;;;;0.20;0.20;;;;;;;12.01;69.10;100852.16;5020013;28;20026;-84
2023/12/28 02:23:35;;;;;;;0.10;0.10;;;;;;;12.02;68.55;100851.25;5025015;28;20100;-84
2023/12/28 02:26:02;;;;;;;0.25;0.25;;;;;;;11.86;69.63;100859.56;5017957;28;20030;-84
2023/12/28 02:28:28;;;;;;;0.10;0.10;;;;;;;11.92;69.14;100858.56;5023071;28;20073;-85
2023/12/28 02:30:54;;;;;;;0.10;0.10;;;;;;;11.93;68.96;100855.84;5023841;28;20042;-82
2023/12/28 02:36:10;;;;;;;0.20;0.20;;;;;;;11.90;69.82;100839.13;5115992;27;1434961;-81
2023/12/28 02:38:37;;;;;;;;;;;;;;;11.96;68.98;100839.91;5132807;27;20027;-81
2023/12/28 02:41:04;;;;;;;0.10;0.10;;;;;;;11.83;69.13;100846.38;5099903;28;19915;-80
2023/12/28 02:43:33;;;;;;;0.10;0.10;;;;;;;11.78;69.99;100842.97;5102283;28;20031;-81
2023/12/28 02:45:59;;;;;;;0.10;0.10;;;;;;;11.79;69.39;100852.69;5100290;28;20129;-81
2023/12/28 02:48:25;;;;;;;0.20;0.20;;;;;;;11.87;69.19;100845.38;5096902;28;20028;-80
2023/12/28 02:50:52;;;;;;;0.10;0.10;;;;;;;11.82;69.83;100855.25;5096482;28;20024;-81
2023/12/28 02:53:18;;;;;;;0.10;0.10;;;;;;;11.93;69.23;100845.22;5096644;28;20032;-81
2023/12/28 02:55:44;;;;;;;0.10;0.10;;;;;;;11.79;69.59;100852.69;5112494;28;20035;-81
2023/12/28 02:58:11;;;;;;;1.17;1.13;;;;;;;11.93;69.22;100842.56;5104358;28;20442;-81
2023/12/28 03:00:37;;;;;;;0.20;0.20;;;;;;;11.87;68.84;100863.97;5099630;28;20036;-81
2023/12/28 03:03:03;;;;;;;0.10;0.10;;;;;;;11.96;68.96;100846.97;5099274;28;20025;-81
2023/12/28 03:05:30;;;;;;;0.20;0.20;;;;;;;12.05;68.37;100854.72;5099461;28;20028;-81
2023/12/28 03:07:58;;;;;;;0.20;0.20;;;;;;;11.97;68.98;100862.00;5098976;28;20024;-81
2023/12/28 03:10:24;;;;;;;1.85;1.75;;;;;;;11.89;69.03;100842.72;5098224;28;20070;-79
2023/12/28 03:12:50;;;;;;;0.10;0.10;;;;;;;12.00;68.78;100850.41;5096640;28;20062;-81
2023/12/28 03:15:16;;;;;;;0.40;0.40;;;;;;;12.09;68.29;100860.81;5097412;28;20032;-81
2023/12/28 03:17:43;;;;;;;0.20;0.20;;;;;;;11.96;68.83;100861.13;5097854;28;20024;-80
2023/12/28 03:20:10;;;;;;;0.13;0.13;;;;;;;11.97;68.90;100857.56;5112139;28;20058;-81
2023/12/28 03:22:36;;;;;;;0.10;0.10;;;;;;;12.00;68.33;100861.94;5109752;28;20758;-81
2023/12/28 03:25:03;;;;;;;0.10;0.10;;;;;;;11.88;68.66;100849.78;5107971;28;20021;-79
2023/12/28 03:27:29;;;;;;;0.10;0.10;;;;;;;11.88;68.26;100840.97;5119172;28;20031;-80
2023/12/28 03:29:55;;;;;;;0.10;0.10;;;;;;;11.82;69.05;100844.63;5111274;28;20100;-79
2023/12/28 03:32:21;;;;;;;0.10;0.10;;;;;;;11.81;68.93;100837.56;5104128;28;20023;-79
2023/12/28 03:34:48;;;;;;;0.30;0.30;;;;;;;11.73;68.95;100821.00;5112816;28;20089;-80
2023/12/28 03:37:14;;;;;;;0.30;0.30;;;;;;;11.79;68.88;100831.47;5114789;28;20032;-80
2023/12/28 03:39:40;;;;;;;1.17;0.68;;;;;;;11.73;69.03;100823.66;5107922;28;20066;-81
2023/12/28 03:42:07;;;;;;;0.10;0.10;;;;;;;11.78;68.83;100819.09;5103610;28;20029;-80
2023/12/28 03:44:33;;;;;;;0.10;0.10;;;;;;;11.78;68.65;100821.75;5091910;28;20024;-80
2023/12/28 03:47:00;;;;;;;0.10;0.10;;;;;;;11.80;68.63;100833.16;5080510;28;20036;-78
2023/12/28 03:49:26;;;;;;;0.17;0.17;;;;;;;11.76;68.42;100826.22;5077228;28;20032;-80
2023/12/28 03:51:52;;;;;;;0.52;0.52;;;;;;;11.85;68.45;100836.63;5078118;28;20028;-80
2023/12/28 03:54:19;;;;;;;0.20;0.20;;;;;;;11.79;68.52;100839.41;5090680;28;20032;-80
2023/12/28 03:56:47;;;;;;;0.10;0.10;;;;;;;11.83;68.46;100833.13;5099467;28;20028;-81
2023/12/28 03:59:17;;;;;;;0.73;0.73;;;;;;;11.81;68.40;100829.63;5092438;28;20028;-82
2023/12/28 04:01:44;;;;;;;0.10;0.10;;;;;;;11.92;68.25;100822.25;5102958;28;20079;-80
2023/12/28 04:04:10;;;;;;;0.40;0.40;;;;;;;11.84;68.29;100829.56;5090482;28;20352;-80
2023/12/28 04:06:37;;;;;;;0.10;0.10;;;;;;;11.91;67.59;100815.22;5089240;28;20525;-80
2023/12/28 04:09:04;;;;;;;0.10;0.10;;;;;;;11.79;68.53;100837.63;5087260;28;20024;-80
2023/12/28 04:11:30;;;;;;;0.52;0.52;;;;;;;11.82;68.25;100844.63;5078349;28;20032;-80
2023/12/28 04:13:56;;;;;;;0.55;0.55;;;;;;;11.83;68.39;100833.13;5095653;28;20051;-81
2023/12/28 04:16:23;;;;;;;0.20;0.20;;;;;;;11.93;67.40;100817.81;5078363;28;20033;-80
2023/12/28 04:18:49;;;;;;;0.40;0.40;;;;;;;12.03;67.25;100821.16;5078335;28;20035;-80
2023/12/28 04:21:15;;;;;;;0.15;0.15;;;;;;;12.14;66.82;100821.72;5085973;28;20074;-77
2023/12/28 04:23:42;;;;;;;0.30;0.30;;;;;;;12.23;66.84;100821.47;5093973;28;20024;-80
2023/12/28 04:26:08;;;;;;;0.10;0.10;;;;;;;12.10;66.59;100822.69;5082937;28;20059;-81
2023/12/28 04:28:35;;;;;;;0.30;0.30;;;;;;;12.17;66.29;100816.31;5082832;28;20029;-81
2023/12/28 04:31:04;;;;;;;0.10;0.10;;;;;;;12.30;65.57;100832.81;5081503;28;20028;-80
2023/12/28 04:33:31;;;;;;;0.10;0.10;;;;;;;12.23;66.25;100816.16;5087073;28;20124;-80
2023/12/28 04:35:57;;;;;;;1.15;0.73;;;;;;;12.41;65.31;100805.94;5093269;28;20035;-81
2023/12/28 04:38:23;;;;;;;0.65;0.65;;;;;;;12.35;65.65;100817.63;5085488;28;20024;-81
2023/12/28 04:40:49;;;;;;;3.15;0.90;;;;;;;12.39;65.23;100823.72;5093738;28;20029;-80
2023/12/28 04:43:16;;;;;;;0.10;0.10;;;;;;;12.42;65.61;100826.28;5081890;28;20035;-80
2023/12/28 04:45:42;;;;;;;0.10;0.10;;;;;;;12.39;65.01;100829.03;5095826;28;20503;-80
2023/12/28 04:48:09;;;;;;;0.30;0.30;;;;;;;12.36;64.86;100821.13;5084799;28;20040;-81
2023/12/28 04:50:35;;;;;;;0.20;0.20;;;;;;;12.25;64.96;100826.72;5094868;28;20029;-81
2023/12/28 04:53:01;;;;;;;0.10;0.10;;;;;;;12.53;64.66;100834.81;5089673;28;20379;-80
2023/12/28 04:55:27;;;;;;;0.10;0.10;;;;;;;12.51;63.97;100838.44;5081321;28;20059;-80
2023/12/28 04:57:53;;;;;;;0.10;0.10;;;;;;;12.58;64.01;100842.66;5096323;28;20496;-81
2023/12/28 05:00:20;;;;;;;0.57;0.57;;;;;;;12.50;64.42;100840.22;5079448;28;20426;-80
2023/12/28 05:02:46;;;;;;;0.10;0.10;;;;;;;12.63;63.67;100846.06;5080864;28;20590;-81
2023/12/28 05:05:13;;;;;;;0.20;0.20;;;;;;;12.61;63.74;100854.09;5084317;28;20020;-82
2023/12/28 05:07:39;;;;;;;0.17;0.17;;;;;;;12.60;64.29;100855.00;5086149;28;20107;-82
2023/12/28 05:10:06;;;;;;;0.20;0.20;;;;;;;12.64;63.94;100858.44;5081799;28;20032;-82
2023/12/28 05:12:32;;;;;;;1.08;1.00;;;;;;;12.52;63.92;100856.97;5095473;28;20021;-82
2023/12/28 05:14:58;;;;;;;0.10;0.10;;;;;;;12.61;63.59;100856.75;5096531;28;20100;-81
2023/12/28 05:17:24;;;;;;;1.02;0.85;;;;;;;12.64;63.92;100855.78;5080135;28;20028;-80
2023/12/28 05:19:50;;;;;;;0.10;0.10;;;;;;;12.57;63.84;100870.16;5079903;28;20051;-81
2023/12/28 05:22:16;;;;;;;4.97;1.75;;;;;;;12.62;63.76;100845.19;5082800;28;20024;-80
2023/12/28 05:24:43;;;;;;;0.10;0.10;;;;;;;12.65;63.57;100861.94;5084833;28;20024;-80
2023/12/28 05:27:09;;;;;;;1.08;1.00;;;;;;;12.69;63.52;100866.28;5088078;28;20025;-80
2023/12/28 05:29:35;;;;;;;0.10;0.10;;;;;;;12.62;63.75;100855.84;5080694;28;20056;-81
2023/12/28 05:32:01;;;;;;;0.10;0.10;;;;;;;12.65;63.67;100853.97;5081956;28;20028;-80
2023/12/28 05:34:27;;;;;;;0.10;0.10;;;;;;;12.77;63.64;100849.19;5081406;28;20055;-81
2023/12/28 05:36:53;;;;;;;0.10;0.10;;;;;;;12.65;63.24;100857.53;5082500;28;20027;-81
2023/12/28 05:39:20;;;;;;;0.15;0.15;;;;;;;12.69;63.32;100853.00;5080107;28;20064;-81
2023/12/28 05:41:47;;;;;;;0.10;0.10;;;;;;;12.65;62.92;100859.28;5080707;28;20039;-79
2023/12/28 05:44:14;;;;;;;0.10;0.10;;;;;;;12.84;62.57;100852.53;5097915;28;20024;-81
2023/12/28 05:46:40;;;;;;;0.10;0.10;;;;;;;12.83;62.55;100849.94;5095175;28;20465;-80
2023/12/28 05:49:06;;;;;;;0.65;0.65;;;;;;;12.65;63.30;100838.91;5091586;28;20031;-80
2023/12/28 05:51:39;;;;;;;0.10;0.10;;;;;;;12.82;62.72;100846.38;5087425;28;20020;-81
2023/12/28 05:54:06;;;;;;;0.10;0.10;;;;;;;12.81;62.94;100844.66;5080488;28;20027;-81
2023/12/28 05:56:32;;;;;;;0.20;0.20;;;;;;;12.70;62.70;100842.31;5085129;28;20019;-80
2023/12/28 05:58:59;;;;;;;0.10;0.10;;;;;;;12.68;62.72;100849.44;5100149;28;20035;-81
2023/12/28 06:01:25;;;;;;;0.10;0.10;;;;;;;12.78;62.69;100858.03;5086491;28;20467;-80
2023/12/28 06:03:52;;;;;;;0.10;0.10;;;;;;;12.80;62.31;100845.56;5079949;28;20034;-81
2023/12/28 06:06:19;;;;;;;0.55;0.55;;;;;;;12.72;62.69;100844.91;5092248;28;20067;-81
2023/12/28 06:08:45;;;;;;;0.10;0.10;;;;;;;12.67;62.33;100862.78;5092596;28;20032;-80
2023/12/28 06:11:11;;;;;;;0.10;0.10;;;;;;;12.78;62.12;100861.59;5098506;28;20055;-81
2023/12/28 06:13:37;;;;;;;0.15;0.15;;;;;;;12.57;62.78;100876.34;5091358;28;20491;-81
2023/12/28 06:16:04;;;;;;;0.10;0.10;;;;;;;12.70;62.38;100865.38;5081421;28;20028;-81
2023/12/28 06:18:30;;;;;;;0.20;0.20;;;;;;;12.76;62.02;100851.88;5079374;28;20078;-81
2023/12/28 06:20:57;;;;;;;1.42;1.42;;;;;;;12.81;61.97;100855.31;5078925;28;20096;-81
2023/12/28 06:23:23;;;;;;;0.10;0.10;;;;;;;12.87;61.60;100870.19;5079018;28;20056;-81
2023/12/28 06:25:49;;;;;;;0.10;0.10;;;;;;;12.95;61.31;100889.47;5079175;28;20025;-81
2023/12/28 06:28:16;;;;;;;15.73;4.43;;;;;;;12.75;61.62;100890.03;5096367;28;20505;-79
2023/12/28 06:30:42;;;;;;;1.30;1.20;;;;;;;12.92;61.43;100879.78;5086181;28;20055;-83
2023/12/28 06:33:08;;;;;;;0.10;0.10;;;;;;;12.93;61.36;100881.53;5089910;28;20033;-79
2023/12/28 06:35:34;;;;;;;0.10;0.10;;;;;;;12.81;61.34;100876.56;5080337;28;20052;-80
2023/12/28 06:38:01;;;;;;;0.10;0.10;;;;;;;12.71;61.92;100889.25;5080445;28;20040;-79
2023/12/28 06:40:27;;;;;;;0.10;0.10;;;;;;;12.69;61.75;100876.91;5093733;28;20036;-81
2023/12/28 06:42:53;;;;;;;0.10;0.10;;;;;;;12.80;61.58;100880.16;5085646;28;20020;-79
2023/12/28 06:45:19;;;;;;;0.10;0.10;;;;;;;12.88;61.47;100877.25;5101924;28;20099;-79
2023/12/28 06:47:46;;;;;;;0.10;0.10;;;;;;;12.83;61.79;100885.34;5088268;28;20033;-80
2023/12/28 06:50:12;;;;;;;0.20;0.20;;;;;;;12.65;61.94;100900.06;5080307;28;20028;-80
2023/12/28 06:52:38;;;;;;;0.20;0.20;;;;;;;12.66;61.52;100908.91;5079999;28;20039;-81
2023/12/28 06:55:05;;;;;;;0.20;0.20;;;;;;;12.51;61.71;100919.03;5080676;28;20033;-80
2023/12/28 06:57:31;;;;;;;0.43;0.43;;;;;;;12.55;61.90;100930.47;5080151;28;20033;-81
2023/12/28 06:59:59;;;;;;;1.25;1.25;;;;;;;12.64;61.40;100916.06;5089279;28;20027;-81
2023/12/28 07:02:26;;;;;;;0.20;0.20;;;;;;;12.52;61.70;100912.78;5097291;28;20032;-80
2023/12/28 07:04:52;;;;;;;6.03;1.10;;;;;;;12.51;61.70;100911.06;5080166;28;20059;-80
2023/12/28 07:07:18;;;;;;;0.20;0.20;;;;;;;12.51;62.06;100895.13;5083191;28;20040;-81
2023/12/28 07:09:44;;;;;;;1.98;0.90;;;;;;;12.33;62.48;100904.44;5091753;28;20032;-81
2023/12/28 07:12:10;;;;;;;0.10;0.10;;;;;;;12.30;62.42;100910.72;5079412;28;20036;-81
2023/12/28 07:14:36;;;;;;;0.30;0.30;;;;;;;12.18;62.57;100919.00;5085181;28;20043;-81
2023/12/28 07:17:02;;;;;;;0.32;0.32;;;;;;;12.33;62.53;100927.50;5100062;28;20048;-81
2023/12/28 07:19:29;;;;;;;0.40;0.40;;;;;;;12.32;62.35;100913.31;5098850;28;20402;-80
2023/12/28 07:21:55;;;;;;;0.10;0.10;;;;;;;12.37;62.92;100923.84;5101929;28;20028;-80
2023/12/28 07:24:21;;;;;;;0.10;0.10;;;;;;;12.34;63.27;100918.63;5082706;28;20044;-81
2023/12/28 07:26:47;;;;;;;0.10;0.10;;;;;;;12.34;62.65;100908.00;5082900;28;20043;-81
2023/12/28 07:29:13;;;;;;;0.13;0.13;;;;;;;12.33;63.05;100930.16;5082572;28;20052;-81
2023/12/28 07:31:39;;;;;;;0.10;0.10;;;;;;;12.32;62.63;100939.03;5088857;28;20024;-81
2023/12/28 07:34:06;;;;;;;0.60;0.60;;;;;;;12.26;62.84;100922.34;5092797;28;20283;-81
2023/12/28 07:36:32;;;;;;;0.10;0.10;;;;;;;12.41;62.48;100938.78;5082615;28;20438;-81
2023/12/28 07:38:58;;;;;;;0.82;0.82;;;;;;;12.49;62.97;100931.50;5081993;28;20025;-81
2023/12/28 07:41:24;;;;;;;0.10;0.10;;;;;;;12.42;63.33;100944.09;5086595;28;20020;-81
2023/12/28 07:43:50;;;;;;;0.10;0.10;;;;;;;12.52;62.53;100967.75;5094456;28;20115;-80
2023/12/28 07:46:17;;;;;;;0.20;0.20;;;;;;;12.38;63.28;100947.72;5092938;28;20020;-81
2023/12/28 07:48:43;;;;;;;1.67;1.10;;;;;;;12.50;63.01;100951.84;5086504;28;20040;-79
2023/12/28 07:51:12;;;;;;;0.82;0.82;;;;;;;12.44;62.99;100928.09;5080681;28;20025;-82
2023/12/28 07:53:38;;;;;;;0.10;0.10;;;;;;;12.54;62.52;100944.66;5082220;28;20046;-79
2023/12/28 07:56:08;;;;;;;0.10;0.10;;;;;;;12.37;63.32;100926.50;5089747;28;20032;-80
2023/12/28 07:58:37;;;;;;;0.50;0.50;;;;;;;12.58;62.85;100933.88;5092944;28;20111;-80
2023/12/28 08:01:03;;;;;;;0.13;0.13;;;;;;;12.59;62.71;100946.28;5091451;28;20071;-79
2023/12/28 08:03:29;;;;;;;0.10;0.10;;;;;;;12.36;63.10;100961.94;5080804;28;20142;-80
2023/12/28 08:05:55;;;;;;;1.08;1.08;;;;;;;12.30;62.99;100960.34;5080572;28;20032;-80
2023/12/28 08:08:22;;;;;;;0.10;0.10;;;;;;;12.43;62.96;100950.25;5085553;28;20024;-80
2023/12/28 08:10:48;;;;;;;0.10;0.10;;;;;;;12.51;63.12;100958.91;5093109;28;20119;-79
2023/12/28 08:13:14;;;;;;;0.20;0.20;;;;;;;12.59;62.45;100956.91;5082177;28;20399;-81
2023/12/28 08:15:40;;;;;;;1.48;0.88;;;;;;;12.53;63.17;100956.22;5095263;28;20449;-81
2023/12/28 08:18:09;;;;;;;0.20;0.20;;;;;;;12.56;63.09;100962.31;5082196;28;20489;-80
2023/12/28 08:20:35;;;;;;;0.10;0.10;;;;;;;12.44;62.88;100957.31;5082512;28;20055;-81
2023/12/28 08:23:01;;;;;;;0.10;0.10;;;;;;;12.59;62.84;100972.84;5081527;28;20069;-80
2023/12/28 08:25:28;;;;;;;0.10;0.10;;;;;;;12.42;62.72;100962.69;5086312;28;20092;-80
2023/12/28 08:27:54;;;;;;;0.10;0.10;;;;;;;12.53;63.20;100973.00;5093763;28;20029;-80
2023/12/28 08:30:21;;;;;;;7.88;2.45;;;;;;;12.46;63.61;100974.06;5098498;28;20038;-81
2023/12/28 08:32:47;;;;;;;0.13;0.13;;;;;;;12.61;62.98;100968.38;5101560;28;20035;-80
2023/12/28 08:35:13;;;;;;;0.10;0.10;;;;;;;12.53;62.52;100990.75;5096744;28;20032;-81
2023/12/28 08:37:40;;;;;;;0.10;0.10;;;;;;;12.52;62.78;100997.84;5087081;28;20028;-80
2023/12/28 08:40:09;;;;;;;0.10;0.10;;;;;;;12.59;62.84;100977.31;5083027;28;20025;-81
2023/12/28 08:42:36;;;;;;;0.10;0.10;;;;;;;12.62;62.88;100982.53;5096402;28;20074;-80
2023/12/28 08:45:02;;;;;;;0.10;0.10;;;;;;;12.64;62.45;100970.09;5090379;28;20031;-80
2023/12/28 08:47:28;;;;;;;0.10;0.10;;;;;;;12.68;62.36;100966.41;5094797;28;20042;-80
2023/12/28 08:49:55;;;;;;;0.10;0.10;;;;;;;12.70;62.06;100985.00;5105843;28;20042;-80
2023/12/28 08:52:21;;;;;;;0.30;0.30;;;;;;;12.81;61.93;100971.41;5098748;28;20039;-80
2023/12/28 08:54:47;;;;;;;0.10;0.10;;;;;;;12.72;62.04;100983.16;5110150;28;20036;-80
2023/12/28 08:57:14;;;;;;;8.15;2.80;;;;;;;12.66;62.14;100999.28;5107666;28;20092;-80
2023/12/28 08:59:40;;;;;;;0.20;0.20;;;;;;;12.75;61.74;100996.38;5088622;28;20032;-80
2023/12/28 09:02:07;;;;;;;1.35;0.55;;;;;;;12.62;62.31;101025.06;5097238;28;20036;-80
2023/12/28 09:04:33;;;;;;;0.85;0.85;;;;;;;12.71;62.24;100992.03;5105154;28;20025;-78
2023/12/28 09:06:59;;;;;;;0.10;0.10;;;;;;;12.71;62.64;100997.38;5102824;28;20035;-81
2023/12/28 09:09:26;;;;;;;0.10;0.10;;;;;;;12.64;62.79;101001.13;5101565;28;20059;-77
2023/12/28 09:11:52;;;;;;;0.22;0.22;;;;;;;12.71;61.99;101018.63;5109550;28;20039;-80
2023/12/28 09:14:18;;;;;;;0.57;0.57;;;;;;;12.72;62.21;101004.44;5110202;28;20024;-79
2023/12/28 09:16:47;;;;;;;0.10;0.10;;;;;;;12.91;61.86;101005.69;5094015;28;20043;-80
2023/12/28 09:19:14;;;;;;;3.55;2.38;;;;;;;12.80;61.45;101013.09;5081345;28;20028;-80
2023/12/28 09:21:41;;;;;;;0.10;0.10;;;;;;;12.77;62.10;101034.41;5083751;28;20024;-81
2023/12/28 09:24:07;;;;;;;0.10;0.10;;;;;;;12.90;61.58;101019.91;5083061;28;20035;-83
2023/12/28 09:26:34;;;;;;;0.13;0.13;;;;;;;12.77;61.66;101018.47;5082140;28;20088;-81
2023/12/28 09:29:01;;;;;;;0.30;0.30;;;;;;;12.97;61.09;101022.38;5082780;28;20032;-80
2023/12/28 09:31:27;;;;;;;0.30;0.30;;;;;;;12.89;61.21;101054.50;5102765;28;20028;-82
2023/12/28 09:33:53;;;;;;;0.10;0.10;;;;;;;12.92;61.18;101039.34;5103939;28;20028;-82
2023/12/28 09:36:19;;;;;;;0.10;0.10;;;;;;;12.97;61.03;101025.91;5099285;28;20108;-81
2023/12/28 09:38:45;;;;;;;0.80;0.80;;;;;;;13.01;61.07;101024.94;5082141;28;20031;-81
2023/12/28 09:41:14;;;;;;;0.10;0.10;;;;;;;13.01;61.28;101026.69;5081380;28;20024;-81
2023/12/28 09:43:53;;;;;;;0.10;0.10;;;;;;;12.95;61.05;101038.41;5088149;28;20035;-81
2023/12/28 09:46:19;;;;;;;0.10;0.10;;;;;;;12.99;61.96;101036.53;5091056;28;20088;-79
2023/12/28 09:48:45;;;;;;;1.52;1.42;;;;;;;12.88;61.74;101056.28;5079830;28;20044;-79
2023/12/28 09:51:12;;;;;;;1.80;1.65;;;;;;;12.87;62.08;101046.59;5078380;28;20070;-79
2023/12/28 09:53:39;;;;;;;0.47;0.30;;;;;;;12.81;62.22;101057.38;5079158;28;20036;-80
2023/12/28 09:56:08;;;;;;;0.10;0.10;;;;;;;12.74;62.73;101056.66;5079182;28;20025;-79
2023/12/28 09:58:36;;;;;;;0.35;0.35;;;;;;;12.89;61.74;101060.69;5083809;28;20045;-79
2023/12/28 10:01:05;;;;;;;0.10;0.10;;;;;;;12.81;62.26;101062.69;5088504;28;20036;-80
2023/12/28 10:03:31;;;;;;;0.13;0.13;;;;;;;12.88;62.24;101047.44;5080087;28;20101;-80
2023/12/28 10:05:57;;;;;;;0.10;0.10;;;;;;;12.83;62.49;101052.88;5091219;28;20519;-81
2023/12/28 10:08:23;;;;;;;0.30;0.30;;;;;;;12.90;61.80;101066.91;5085028;28;20029;-81
2023/12/28 10:10:53;;;;;;;0.10;0.10;;;;;;;12.90;61.61;101057.13;5082209;28;20040;-83
2023/12/28 10:13:20;;;;;;;0.10;0.10;;;;;;;12.98;61.45;101080.00;5083805;28;20020;-81
2023/12/28 10:15:47;;;;;;;0.73;0.73;;;;;;;12.92;61.98;101057.09;5081873;28;20073;-80
2023/12/28 10:18:13;;;;;;;0.98;0.98;;;;;;;12.93;61.71;101069.47;5080157;28;20037;-81
2023/12/28 10:20:39;;;;;;;0.22;0.22;;;;;;;12.89;61.85;101076.66;5081711;28;20468;-81
2023/12/28 10:23:06;;;;;;;0.10;0.10;;;;;;;12.99;61.82;101052.50;5083095;28;20077;-81
2023/12/28 10:25:33;;;;;;;2.03;1.85;;;;;;;12.97;61.88;101054.31;5083492;28;20076;-78
2023/12/28 10:28:06;;;;;;;9.52;1.75;;;;;;;12.88;61.60;101061.59;5084820;28;20036;-81
2023/12/28 10:30:32;;;;;;;0.10;0.10;;;;;;;12.91;61.96;101053.56;5096792;28;20026;-80
2023/12/28 10:32:58;;;;;;;0.10;0.10;;;;;;;12.87;62.09;101041.28;5097272;28;20091;-80
2023/12/28 10:35:25;;;;;;;0.28;0.28;;;;;;;12.87;62.36;101046.59;5079718;28;20032;-81
2023/12/28 10:37:53;;;;;;;0.10;0.10;;;;;;;12.88;62.36;101058.09;5079685;28;20050;-81
2023/12/28 10:40:21;;;;;;;0.10;0.10;;;;;;;12.92;62.15;101059.75;5078951;28;20035;-80
2023/12/28 10:43:01;;;;;;;0.20;0.20;;;;;;;13.06;61.36;101046.06;5080699;28;20036;-82
2023/12/28 10:45:32;;;;;;;0.10;0.10;;;;;;;13.08;60.96;101044.25;5092312;28;20024;-81
2023/12/28 10:50:49;;;;;;;0.10;0.10;;;;;;;12.89;61.59;101054.50;5097030;27;20385;-80
2023/12/28 10:56:38;;;;;;;0.10;0.10;;;;;;;13.12;60.90;101061.88;5115806;27;20389;-80
2023/12/28 11:01:58;;;;;;;0.10;0.10;;;;;;;13.10;61.33;101059.25;5117904;27;20387;-80
2023/12/28 11:04:52;;;;;;;0.10;0.10;;;;;;;13.13;60.98;101042.31;5117356;28;20051;-81
2023/12/28 11:07:20;;;;;;;0.77;0.52;;;;;;;13.13;60.99;101037.00;5117025;28;20027;-80
2023/12/28 11:09:47;;;;;;;0.10;0.10;;;;;;;13.16;61.08;101047.59;5109461;28;20058;-81
2023/12/28 11:12:17;;;;;;;0.10;0.10;;;;;;;12.95;61.33;101063.19;5118929;28;20028;-80
2023/12/28 11:14:44;;;;;;;0.10;0.10;;;;;;;13.18;61.12;101045.72;5107077;28;20045;-80
2023/12/28 11:17:11;;;;;;;0.13;0.13;;;;;;;13.15;60.69;101067.13;5113303;28;20051;-80
2023/12/28 11:19:38;;;;;;;0.73;0.73;;;;;;;13.24;60.71;101040.25;5113279;28;20039;-79
2023/12/28 11:22:07;;;;;;;5.18;2.80;;;;;;;13.25;60.83;101046.44;5114355;28;20028;-79
2023/12/28 11:24:34;;;;;;;0.10;0.10;;;;;;;13.20;61.13;101048.38;5115851;28;20028;-80
2023/12/28 11:27:01;;;;;;;0.32;0.32;;;;;;;13.15;60.72;101044.97;5116897;28;20125;-81
2023/12/28 11:29:31;;;;;;;0.10;0.10;;;;;;;13.17;61.20;101049.34;5116287;28;20027;-80
2023/12/28 11:31:59;;;;;;;1.20;1.10;;;;;;;13.07;61.39;101038.06;5117098;28;20042;-81
2023/12/28 11:34:28;;;;;;;4.80;0.82;;;;;;;13.20;61.09;101049.22;5114607;28;20073;-80